createdAt,value
2022-10-15T00:01:32.326Z,85.99
2022-10-15T00:04:02.653Z,86.29
2022-10-15T00:06:31.113Z,86.30
2022-10-15T00:08:59.560Z,86.53
2022-10-15T00:11:29.403Z,86.49
2022-10-15T00:14:00.297Z,86.57
2022-10-15T00:16:30.817Z,87.06
2022-10-15T00:19:00.940Z,87.01
2022-10-15T00:21:29.359Z,86.97
2022-10-15T00:23:57.745Z,87.02
2022-10-15T00:26:28.153Z,87.07
2022-10-15T00:28:59.169Z,87.30
2022-10-15T00:31:30.767Z,87.21
2022-10-15T00:34:02.141Z,87.25
2022-10-15T00:36:32.699Z,87.64
2022-10-15T00:39:01.537Z,87.54
2022-10-15T00:41:31.530Z,87.83
2022-10-15T00:44:01.706Z,87.92
2022-10-15T00:46:36.279Z,87.82
2022-10-15T00:49:16.835Z,88.29
2022-10-15T00:51:49.747Z,88.22
2022-10-15T00:54:18.177Z,88.51
2022-10-15T00:56:48.128Z,88.58
2022-10-15T00:59:18.928Z,88.43
2022-10-15T01:01:48.624Z,88.77
2022-10-15T01:04:18.923Z,88.54
2022-10-15T01:06:47.580Z,88.76
2022-10-15T01:09:16.178Z,88.98
2022-10-15T01:11:48.157Z,88.81
2022-10-15T01:14:33.796Z,88.97
2022-10-15T01:17:09.187Z,89.15
2022-10-15T01:19:58.775Z,89.11
2022-10-15T01:22:38.419Z,88.98
2022-10-15T01:25:22.604Z,89.13
2022-10-15T01:27:56.142Z,89.28
2022-10-15T01:30:30.421Z,89.09
2022-10-15T01:33:16.415Z,89.15
2022-10-15T01:35:51.235Z,88.99
2022-10-15T01:38:36.852Z,89.23
2022-10-15T01:41:11.116Z,89.14
2022-10-15T01:43:46.920Z,89.14
2022-10-15T01:46:21.971Z,89.44
2022-10-15T01:48:53.946Z,89.25
2022-10-15T01:51:24.403Z,89.68
2022-10-15T01:53:54.399Z,89.53
2022-10-15T01:56:25.001Z,89.62
2022-10-15T01:58:56.916Z,89.69
2022-10-15T02:01:26.688Z,89.77
2022-10-15T02:03:55.056Z,90.02
2022-10-15T02:06:28.252Z,89.62
2022-10-15T02:09:08.945Z,89.92
2022-10-15T02:11:46.369Z,89.77
2022-10-15T02:14:21.500Z,89.70
2022-10-15T02:16:57.501Z,89.81
2022-10-15T02:19:33.737Z,89.96
2022-10-15T02:22:07.702Z,90.33
2022-10-15T02:24:40.966Z,90.31
2022-10-15T02:27:10.996Z,90.49
2022-10-15T02:29:42.400Z,90.24
2022-10-15T02:32:16.481Z,90.46
2022-10-15T02:34:47.239Z,90.41
2022-10-15T02:37:18.483Z,90.42
2022-10-15T02:39:47.214Z,90.66
2022-10-15T02:42:17.245Z,90.59
2022-10-15T02:44:45.791Z,90.57
2022-10-15T02:47:15.987Z,90.56
2022-10-15T02:49:44.371Z,91.01
2022-10-15T02:52:12.904Z,90.73
2022-10-15T02:54:41.264Z,90.93
2022-10-15T02:57:09.656Z,90.90
2022-10-15T02:59:38.331Z,91.17
2022-10-15T03:02:06.669Z,90.81
2022-10-15T03:04:36.400Z,90.93
2022-10-15T03:07:04.948Z,91.34
2022-10-15T03:09:33.329Z,91.23
2022-10-15T03:12:01.878Z,91.33
2022-10-15T03:17:04.104Z,91.35
2022-10-15T03:19:32.651Z,91.19
2022-10-15T03:22:02.353Z,91.21
2022-10-15T03:24:30.715Z,91.28
2022-10-15T03:26:59.011Z,91.53
2022-10-15T03:29:27.435Z,91.54
2022-10-15T03:31:55.675Z,91.40
2022-10-15T03:34:24.103Z,91.40
2022-10-15T03:36:52.519Z,91.47
2022-10-15T03:39:22.203Z,91.39
2022-10-15T03:41:53.280Z,91.58
2022-10-15T03:44:22.168Z,91.55
2022-10-15T03:46:50.533Z,91.58
2022-10-15T03:49:18.851Z,91.38
2022-10-15T03:51:47.159Z,91.41
2022-10-15T03:54:15.957Z,91.42
2022-10-15T03:56:45.687Z,91.38
2022-10-15T03:59:14.011Z,91.93
2022-10-15T04:01:42.395Z,91.58
2022-10-15T04:04:12.219Z,91.57
2022-10-15T04:06:40.655Z,91.79
2022-10-15T04:09:09.037Z,91.95
2022-10-15T04:11:37.464Z,91.54
2022-10-15T04:14:08.120Z,91.65
2022-10-15T04:16:36.968Z,91.67
2022-10-15T04:19:07.366Z,91.44
2022-10-15T04:21:38.628Z,91.29
2022-10-15T04:24:07.184Z,91.55
2022-10-15T04:26:35.722Z,91.56
2022-10-15T04:29:04.177Z,91.23
2022-10-15T04:31:34.144Z,91.17
2022-10-15T04:34:02.512Z,91.31
2022-10-15T04:36:30.820Z,91.09
2022-10-15T04:38:59.246Z,91.22
2022-10-15T04:41:27.679Z,91.19
2022-10-15T04:43:56.052Z,91.46
2022-10-15T04:46:24.500Z,91.07
2022-10-15T04:48:57.733Z,91.15
2022-10-15T04:51:27.496Z,91.26
2022-10-15T04:53:56.275Z,91.25
2022-10-15T04:56:25.752Z,91.07
2022-10-15T04:58:54.108Z,91.11
2022-10-15T05:01:22.924Z,91.13
2022-10-15T05:03:51.263Z,91.19
2022-10-15T05:06:22.542Z,91.21
2022-10-15T05:08:51.247Z,90.99
2022-10-15T05:11:21.241Z,91.01
2022-10-15T05:13:50.390Z,90.70
2022-10-15T05:16:21.303Z,90.96
2022-10-15T05:18:51.483Z,91.06
2022-10-15T05:21:21.222Z,90.96
2022-10-15T05:23:50.283Z,90.68
2022-10-15T05:26:22.031Z,90.85
2022-10-15T05:28:51.641Z,90.77
2022-10-15T05:31:22.057Z,90.65
2022-10-15T05:33:52.160Z,90.92
2022-10-15T05:36:24.831Z,90.80
2022-10-15T05:38:54.774Z,90.64
2022-10-15T05:41:24.835Z,90.75
2022-10-15T05:43:55.208Z,90.66
2022-10-15T05:46:24.312Z,90.53
2022-10-15T05:48:53.707Z,90.60
2022-10-15T05:51:24.576Z,90.36
2022-10-15T05:53:54.030Z,90.40
2022-10-15T05:56:23.016Z,90.27
2022-10-15T05:58:51.631Z,90.50
2022-10-15T06:01:20.787Z,90.54
2022-10-15T06:03:49.171Z,90.30
2022-10-15T06:06:19.965Z,90.23
2022-10-15T06:08:50.471Z,90.36
2022-10-15T06:11:18.973Z,90.61
2022-10-15T06:13:47.943Z,90.68
2022-10-15T06:16:21.011Z,90.35
2022-10-15T06:18:53.143Z,90.45
2022-10-15T06:21:21.677Z,90.27
2022-10-15T06:23:51.414Z,90.34
2022-10-15T06:26:19.780Z,90.43
2022-10-15T06:28:48.339Z,90.24
2022-10-15T06:31:16.817Z,90.56
2022-10-15T06:33:45.101Z,90.29
2022-10-15T06:36:14.687Z,90.24
2022-10-15T06:38:44.723Z,90.30
2022-10-15T06:41:14.504Z,90.52
2022-10-15T06:43:42.920Z,90.33
2022-10-15T06:46:11.358Z,90.22
2022-10-15T06:48:39.686Z,90.16
2022-10-15T06:51:08.045Z,90.33
2022-10-15T06:53:37.182Z,90.17
2022-10-15T06:56:06.011Z,89.75
2022-10-15T06:58:35.932Z,90.10
2022-10-15T07:01:06.812Z,90.00
2022-10-15T07:03:36.104Z,90.26
2022-10-15T07:06:06.053Z,90.63
2022-10-15T07:08:34.861Z,90.58
2022-10-15T07:11:04.115Z,90.33
2022-10-15T07:13:32.929Z,90.69
2022-10-15T07:16:06.306Z,90.67
2022-10-15T07:18:35.520Z,90.83
2022-10-15T07:21:04.312Z,90.85
2022-10-15T07:23:33.044Z,90.79
2022-10-15T07:26:02.149Z,91.01
2022-10-15T07:28:30.665Z,90.80
2022-10-15T07:31:02.251Z,91.06
2022-10-15T07:33:34.311Z,90.61
2022-10-15T07:36:05.706Z,90.77
2022-10-15T07:38:34.147Z,90.94
2022-10-15T07:41:03.651Z,90.82
2022-10-15T07:43:31.948Z,90.77
2022-10-15T07:46:00.340Z,91.17
2022-10-15T07:48:28.632Z,90.90
2022-10-15T07:51:00.125Z,90.75
2022-10-15T07:53:28.813Z,91.20
2022-10-15T07:56:00.882Z,91.09
2022-10-15T07:58:30.585Z,91.29
2022-10-15T08:01:02.349Z,91.24
2022-10-15T08:03:31.423Z,91.18
2022-10-15T08:06:03.691Z,91.09
2022-10-15T08:08:32.704Z,91.19
2022-10-15T08:11:06.625Z,90.60
2022-10-15T08:13:35.059Z,90.54
2022-10-15T08:16:03.468Z,90.60
2022-10-15T08:18:31.859Z,90.50
2022-10-15T08:21:02.167Z,90.68
2022-10-15T08:23:30.564Z,90.48
2022-10-15T08:26:00.506Z,90.55
2022-10-15T08:28:29.215Z,90.47
2022-10-15T08:31:02.752Z,90.57
2022-10-15T08:33:33.892Z,90.38
2022-10-15T08:36:05.180Z,90.44
2022-10-15T08:38:33.871Z,90.52
2022-10-15T08:41:03.844Z,90.36
2022-10-15T08:43:37.321Z,90.41
2022-10-15T08:46:10.854Z,90.36
2022-10-15T08:48:42.711Z,90.31
2022-10-15T08:51:15.868Z,90.09
2022-10-15T08:53:48.297Z,90.39
2022-10-15T08:56:20.743Z,90.17
2022-10-15T08:58:57.594Z,90.20
2022-10-15T09:01:33.263Z,90.10
2022-10-15T09:04:14.192Z,90.12
2022-10-15T09:06:44.379Z,90.00
2022-10-15T09:09:20.899Z,89.67
2022-10-15T09:11:59.020Z,89.77
2022-10-15T09:14:31.163Z,89.44
2022-10-15T09:17:02.847Z,89.33
2022-10-15T09:19:35.622Z,89.64
2022-10-15T09:22:06.795Z,89.34
2022-10-15T09:24:35.319Z,89.40
2022-10-15T09:27:10.977Z,89.43
2022-10-15T09:29:46.546Z,89.21
2022-10-15T09:32:22.495Z,89.25
2022-10-15T09:35:00.337Z,89.29
2022-10-15T09:37:35.075Z,89.11
2022-10-15T09:40:29.120Z,89.00
2022-10-15T09:42:59.892Z,88.92
2022-10-15T09:45:28.568Z,88.89
2022-10-15T09:48:00.177Z,89.00
2022-10-15T09:50:40.381Z,88.88
2022-10-15T09:53:19.036Z,88.72
2022-10-15T09:55:53.743Z,88.67
2022-10-15T09:58:26.403Z,88.69
2022-10-15T10:00:58.106Z,88.34
2022-10-15T10:03:29.200Z,88.26
2022-10-15T10:06:02.884Z,88.03
2022-10-15T10:08:36.646Z,87.81
2022-10-15T10:11:07.720Z,87.74
2022-10-15T10:13:41.696Z,87.70
2022-10-15T10:16:11.616Z,87.53
2022-10-15T10:18:40.379Z,87.37
2022-10-15T10:21:23.134Z,87.12
2022-10-15T10:23:52.912Z,86.99
2022-10-15T10:26:21.900Z,86.97
2022-10-15T10:28:57.073Z,86.99
2022-10-15T10:31:40.065Z,86.93
2022-10-15T10:34:13.223Z,86.87
2022-10-15T10:36:44.068Z,86.62
2022-10-15T10:39:24.984Z,86.30
2022-10-15T10:41:55.387Z,85.96
2022-10-15T10:44:29.019Z,85.84
2022-10-15T10:47:10.260Z,85.79
2022-10-15T10:49:40.339Z,85.61
2022-10-15T10:52:20.728Z,85.07
2022-10-15T10:54:56.369Z,84.94
2022-10-15T10:57:33.592Z,84.58
2022-10-15T11:00:05.432Z,84.15
2022-10-15T11:02:35.927Z,84.01
2022-10-15T11:05:04.455Z,84.04
2022-10-15T11:07:42.649Z,83.82
2022-10-15T11:10:20.018Z,83.58
2022-10-15T11:13:04.937Z,83.15
2022-10-15T11:15:43.919Z,82.76
2022-10-15T11:18:34.767Z,82.16
2022-10-15T11:21:12.232Z,82.11
2022-10-15T11:23:58.531Z,81.38
2022-10-15T11:26:58.705Z,80.99
2022-10-15T11:29:37.522Z,81.60
2022-10-15T11:32:18.038Z,81.26
2022-10-15T11:35:01.872Z,81.18
2022-10-15T11:37:43.548Z,81.14
2022-10-15T11:40:21.335Z,80.63
2022-10-15T11:42:58.356Z,80.30
2022-10-15T11:45:48.844Z,79.97
2022-10-15T11:48:23.431Z,80.14
2022-10-15T11:50:58.789Z,79.88
2022-10-15T11:53:54.931Z,79.10
2022-10-15T11:56:27.613Z,79.39
2022-10-15T11:59:01.547Z,79.45
2022-10-15T12:01:38.504Z,79.27
2022-10-15T12:04:13.007Z,79.11
2022-10-15T12:06:48.835Z,79.16
2022-10-15T12:09:29.846Z,79.29
2022-10-15T12:12:04.741Z,79.31
2022-10-15T12:14:40.866Z,79.18
2022-10-15T12:17:17.715Z,78.88
2022-10-15T12:19:52.223Z,79.05
2022-10-15T12:22:34.829Z,78.40
2022-10-15T12:25:03.422Z,78.61
2022-10-15T12:27:38.277Z,78.45
2022-10-15T12:30:22.720Z,78.60
2022-10-15T12:32:51.556Z,78.78
2022-10-15T12:35:24.161Z,78.45
2022-10-15T12:37:52.983Z,77.86
2022-10-15T12:40:30.238Z,77.60
2022-10-15T12:43:01.521Z,77.73
2022-10-15T12:45:39.241Z,77.60
2022-10-15T12:48:23.391Z,77.71
2022-10-15T12:51:11.843Z,77.65
2022-10-15T12:53:43.285Z,77.27
2022-10-15T12:56:23.714Z,76.45
2022-10-15T12:58:54.545Z,76.17
2022-10-15T13:01:31.457Z,75.58
2022-10-15T13:04:02.203Z,75.55
2022-10-15T13:06:35.955Z,75.24
2022-10-15T13:09:19.151Z,74.83
2022-10-15T13:14:30.458Z,74.05
2022-10-15T13:17:03.484Z,74.00
2022-10-15T13:19:36.309Z,73.86
2022-10-15T13:22:07.256Z,73.38
2022-10-15T13:24:45.527Z,72.92
2022-10-15T13:27:22.604Z,72.75
2022-10-15T13:30:02.213Z,72.45
2022-10-15T13:32:34.882Z,72.27
2022-10-15T13:35:11.335Z,71.83
2022-10-15T13:37:42.086Z,72.04
2022-10-15T13:40:21.607Z,71.81
2022-10-15T13:43:03.021Z,71.91
2022-10-15T13:45:31.904Z,72.33
2022-10-15T13:48:01.899Z,72.50
2022-10-15T13:50:31.552Z,72.98
2022-10-15T13:53:05.008Z,73.16
2022-10-15T13:55:38.368Z,73.42
2022-10-15T13:58:18.916Z,73.75
2022-10-15T14:00:52.983Z,74.08
2022-10-15T14:03:25.654Z,74.35
2022-10-15T14:05:55.503Z,74.83
2022-10-15T14:08:29.303Z,74.71
2022-10-15T14:11:00.347Z,75.14
2022-10-15T14:13:29.250Z,75.32
2022-10-15T14:16:14.954Z,75.23
2022-10-15T14:18:49.265Z,75.27
2022-10-15T14:21:19.873Z,75.51
2022-10-15T14:23:49.705Z,75.62
2022-10-15T14:26:25.153Z,75.85
2022-10-15T14:28:55.899Z,75.29
2022-10-15T14:31:34.111Z,74.79
2022-10-15T14:34:04.064Z,74.89
2022-10-15T14:36:41.707Z,74.95
2022-10-15T14:39:28.059Z,74.48
2022-10-15T14:41:58.539Z,74.97
2022-10-15T14:44:27.059Z,75.11
2022-10-15T14:47:03.377Z,75.46
2022-10-15T14:49:35.826Z,75.51
2022-10-15T14:52:07.920Z,75.50
2022-10-15T14:54:39.357Z,75.66
2022-10-15T14:57:18.831Z,75.63
2022-10-15T14:59:47.699Z,75.96
2022-10-15T15:02:18.693Z,75.93
2022-10-15T15:05:05.423Z,76.04
2022-10-15T15:07:33.888Z,76.29
2022-10-15T15:10:02.213Z,76.39
2022-10-15T15:12:31.477Z,76.23
2022-10-15T15:15:00.309Z,76.33
2022-10-15T15:17:30.687Z,76.44
2022-10-15T15:20:00.460Z,76.47
2022-10-15T15:22:31.963Z,76.67
2022-10-15T15:25:02.974Z,76.79
2022-10-15T15:27:37.230Z,77.06
2022-10-15T15:30:08.954Z,77.05
2022-10-15T15:32:37.319Z,77.18
2022-10-15T15:35:20.211Z,77.37
2022-10-15T15:37:48.628Z,77.46
2022-10-15T15:40:17.210Z,77.60
2022-10-15T15:42:46.279Z,77.65
2022-10-15T15:45:20.431Z,77.64
2022-10-15T15:47:49.160Z,77.82
2022-10-15T15:50:20.848Z,77.71
2022-10-15T15:52:49.432Z,77.83
2022-10-15T15:55:18.776Z,77.93
2022-10-15T15:57:47.188Z,78.13
2022-10-15T16:00:17.136Z,78.00
2022-10-15T16:02:46.167Z,78.20
2022-10-15T16:05:16.127Z,78.30
2022-10-15T16:07:46.164Z,78.36
2022-10-15T16:10:14.587Z,78.30
2022-10-15T16:12:44.115Z,78.26
2022-10-15T16:15:14.735Z,78.50
2022-10-15T16:17:44.184Z,78.42
2022-10-15T16:20:13.438Z,78.54
2022-10-15T16:22:42.758Z,78.65
2022-10-15T16:25:12.659Z,78.73
2022-10-15T16:27:41.892Z,78.85
2022-10-15T16:30:11.811Z,78.88
2022-10-15T16:32:40.170Z,78.80
2022-10-15T16:35:09.468Z,78.95
2022-10-15T16:37:37.741Z,78.99
2022-10-15T16:40:07.879Z,78.99
2022-10-15T16:42:37.621Z,79.27
2022-10-15T16:45:06.687Z,79.48
2022-10-15T16:47:35.184Z,79.49
2022-10-15T16:50:03.543Z,79.60
2022-10-15T16:52:32.240Z,79.56
2022-10-15T16:55:00.620Z,79.53
2022-10-15T16:57:28.952Z,79.54
2022-10-15T16:59:58.707Z,79.52
2022-10-15T17:02:27.394Z,79.55
2022-10-15T17:04:55.935Z,79.31
2022-10-15T17:07:24.629Z,79.26
2022-10-15T17:09:53.164Z,79.16
2022-10-15T17:12:21.531Z,79.06
2022-10-15T17:14:51.851Z,79.07
2022-10-15T17:17:21.535Z,79.11
2022-10-15T17:19:49.907Z,79.11
2022-10-15T17:22:18.291Z,79.06
2022-10-15T17:24:46.760Z,79.14
2022-10-15T17:27:15.089Z,79.17
2022-10-15T17:29:43.761Z,79.09
2022-10-15T17:32:12.103Z,79.03
2022-10-15T17:34:41.887Z,79.09
2022-10-15T17:37:10.336Z,79.09
2022-10-15T17:39:38.859Z,78.99
2022-10-15T17:42:07.269Z,78.88
2022-10-15T17:44:35.622Z,78.82
2022-10-15T17:47:04.089Z,78.81
2022-10-15T17:49:32.467Z,78.88
2022-10-15T17:52:02.183Z,78.97
2022-10-15T17:54:30.867Z,79.04
2022-10-15T17:56:59.186Z,79.13
2022-10-15T17:59:27.587Z,79.27
2022-10-15T18:01:59.624Z,79.44
2022-10-15T18:04:29.308Z,79.47
2022-10-15T18:06:58.006Z,79.32
2022-10-15T18:09:28.471Z,79.23
2022-10-15T18:11:57.391Z,79.14
2022-10-15T18:14:25.753Z,78.97
2022-10-15T18:16:54.428Z,79.22
2022-10-15T18:19:22.990Z,79.03
2022-10-15T18:21:51.364Z,79.03
2022-10-15T18:24:22.085Z,79.00
2022-10-15T18:26:52.523Z,79.43
2022-10-15T18:29:22.406Z,79.17
2022-10-15T18:31:56.300Z,79.46
2022-10-15T18:34:26.093Z,79.59
2022-10-15T18:36:54.471Z,79.68
2022-10-15T18:39:23.013Z,79.70
2022-10-15T18:41:52.795Z,79.70
2022-10-15T18:44:23.420Z,79.65
2022-10-15T18:46:52.745Z,79.68
2022-10-15T18:49:21.938Z,79.70
2022-10-15T18:51:52.879Z,79.49
2022-10-15T18:54:22.160Z,79.52
2022-10-15T18:56:52.572Z,79.59
2022-10-15T18:59:21.254Z,79.53
2022-10-15T19:01:50.251Z,79.65
2022-10-15T19:04:23.349Z,79.88
2022-10-15T19:06:53.989Z,80.10
2022-10-15T19:09:24.653Z,80.12
2022-10-15T19:11:55.864Z,80.11
2022-10-15T19:14:25.612Z,80.00
2022-10-15T19:16:54.265Z,79.89
2022-10-15T19:19:26.095Z,79.94
2022-10-15T19:21:55.952Z,79.84
2022-10-15T19:24:24.966Z,79.93
2022-10-15T19:26:54.768Z,79.99
2022-10-15T19:29:23.205Z,80.22
2022-10-15T19:31:53.313Z,80.39
2022-10-15T19:34:22.750Z,80.58
2022-10-15T19:36:51.730Z,80.58
2022-10-15T19:39:22.134Z,80.72
2022-10-15T19:41:51.705Z,80.95
2022-10-15T19:44:25.722Z,80.95
2022-10-15T19:46:55.256Z,81.18
2022-10-15T19:49:24.217Z,81.17
2022-10-15T19:51:53.149Z,81.45
2022-10-15T19:54:21.679Z,81.63
2022-10-15T19:56:50.131Z,82.00
2022-10-15T19:59:18.830Z,81.97
2022-10-15T20:01:48.694Z,82.32
2022-10-15T20:04:17.168Z,82.44
2022-10-15T20:06:45.641Z,82.64
2022-10-15T20:09:14.033Z,82.97
2022-10-15T20:11:44.950Z,83.44
2022-10-15T20:14:13.292Z,83.87
2022-10-15T20:16:41.687Z,83.72
2022-10-15T20:19:12.831Z,83.93
2022-10-15T20:21:41.220Z,84.24
2022-10-15T20:24:09.592Z,84.22
2022-10-15T20:26:37.968Z,84.19
2022-10-15T20:29:06.503Z,84.34
2022-10-15T20:31:35.788Z,84.57
2022-10-15T20:34:04.551Z,84.59
2022-10-15T20:36:34.324Z,84.52
2022-10-15T20:39:02.927Z,84.45
2022-10-15T20:41:31.303Z,84.45
2022-10-15T20:43:59.709Z,84.50
2022-10-15T20:46:31.363Z,84.43
2022-10-15T20:49:06.119Z,84.43
2022-10-15T20:51:41.644Z,84.56
2022-10-15T20:54:11.599Z,84.53
2022-10-15T20:56:40.633Z,84.43
2022-10-15T20:59:09.368Z,84.30
2022-10-15T21:01:37.834Z,84.23
2022-10-15T21:04:06.899Z,84.19
2022-10-15T21:06:35.307Z,84.22
2022-10-15T21:09:05.275Z,84.14
2022-10-15T21:11:33.999Z,84.22
2022-10-15T21:14:02.403Z,84.04
2022-10-15T21:19:00.338Z,84.03
2022-10-15T21:21:29.261Z,83.91
2022-10-15T21:23:59.554Z,84.15
2022-10-15T21:26:29.492Z,84.18
2022-10-15T21:28:59.096Z,83.99
2022-10-15T21:31:28.104Z,84.03
2022-10-15T21:33:57.138Z,84.04
2022-10-15T21:36:27.121Z,83.73
2022-10-15T21:38:57.639Z,83.81
2022-10-15T21:41:27.677Z,83.91
2022-10-15T21:43:58.044Z,83.84
2022-10-15T21:46:26.841Z,83.84
2022-10-15T21:48:55.910Z,83.78
2022-10-15T21:51:26.883Z,83.64
2022-10-15T21:53:56.175Z,83.71
2022-10-15T21:56:24.922Z,83.80
2022-10-15T21:58:55.398Z,83.87
2022-10-15T22:01:27.591Z,83.74
2022-10-15T22:04:01.298Z,83.58
2022-10-15T22:06:30.309Z,83.71
2022-10-15T22:08:59.242Z,83.77
2022-10-15T22:11:29.404Z,83.69
2022-10-15T22:13:59.493Z,83.76
2022-10-15T22:16:29.836Z,83.75
2022-10-15T22:18:58.566Z,83.77
2022-10-15T22:21:29.657Z,83.94
2022-10-15T22:23:59.855Z,83.83
2022-10-15T22:26:30.754Z,83.99
2022-10-15T22:29:01.490Z,83.88
2022-10-15T22:31:31.556Z,83.85
2022-10-15T22:34:00.109Z,84.09
2022-10-15T22:36:30.379Z,84.20
2022-10-15T22:39:02.544Z,84.36
2022-10-15T22:41:32.669Z,84.35
2022-10-15T22:44:01.146Z,84.31
2022-10-15T22:46:32.987Z,84.31
2022-10-15T22:49:02.149Z,84.31
2022-10-15T22:51:30.898Z,84.40
2022-10-15T22:53:59.826Z,84.44
2022-10-15T22:56:29.609Z,84.46
2022-10-15T22:58:58.833Z,84.46
2022-10-15T23:01:29.157Z,84.63
2022-10-15T23:04:02.301Z,84.68
2022-10-15T23:06:31.623Z,84.67
2022-10-15T23:09:00.859Z,84.58
2022-10-15T23:11:30.886Z,84.69
2022-10-15T23:14:03.747Z,84.56
2022-10-15T23:16:34.110Z,84.53
2022-10-15T23:19:06.234Z,84.65
2022-10-15T23:21:38.737Z,84.67
2022-10-15T23:24:07.666Z,84.61
2022-10-15T23:26:36.240Z,84.58
2022-10-15T23:29:06.500Z,84.71
2022-10-15T23:31:37.248Z,84.98
2022-10-15T23:34:07.563Z,84.89
2022-10-15T23:36:35.966Z,84.94
2022-10-15T23:39:06.199Z,84.89
2022-10-15T23:41:34.943Z,84.91
2022-10-15T23:44:03.310Z,84.97
2022-10-15T23:46:31.816Z,85.18
2022-10-15T23:49:00.160Z,85.12
2022-10-15T23:51:31.070Z,85.22
2022-10-15T23:54:01.767Z,85.26
2022-10-15T23:56:31.613Z,85.22
2022-10-15T23:59:01.442Z,85.57
